Time;durP1;ratioP1;P1;durP2;ratioP2;P2;SDS_P1;SDS_P2;PMS_P1;PMS_P2;Temp;Humidity;BMP_temperature;BMP_pressure;BME280_temperature;BME280_humidity;BME280_pressure;Samples;Min_cycle;Max_cycle;Signal;HPM_P1;HPM_P2
2023/03/04 01:11:36;;;;;;;1999.90;999.90;;;;;;;;;;4984858;28;20249;-70
2023/03/04 01:14:21;;;;;;;1999.90;999.90;;;;;;;;;;4991655;28;20233;-73
2023/03/04 01:17:06;;;;;;;1999.90;999.90;;;;;;;;;;4987013;28;20221;-72
2023/03/04 01:19:51;;;;;;;1999.90;999.90;;;;;;;;;;4986640;28;20353;-73
2023/03/04 01:22:35;;;;;;;1999.90;999.90;;;;;;;;;;4986884;28;20215;-73
2023/03/04 01:25:20;;;;;;;1999.90;999.90;;;;;;;;;;4984355;28;20218;-73
2023/03/04 01:28:07;;;;;;;1999.90;999.90;;;;;;;;;;4980102;28;20217;-70
2023/03/04 01:30:52;;;;;;;1999.90;999.90;;;;;;;;;;4985960;28;20274;-72
2023/03/04 01:33:37;;;;;;;1999.90;999.90;;;;;;;;;;4977501;28;20230;-75
2023/03/04 01:36:21;;;;;;;1999.90;999.90;;;;;;;;;;4978916;28;20220;-73
2023/03/04 01:39:06;;;;;;;1999.90;999.90;;;;;;;;;;4977534;28;20407;-72
2023/03/04 01:41:51;;;;;;;1999.90;999.90;;;;;;;;;;4985800;28;20219;-74
2023/03/04 01:44:38;;;;;;;1999.90;999.90;;;;;;;;;;4981438;28;20710;-70
2023/03/04 01:47:23;;;;;;;1999.90;999.90;;;;;;;;;;4977581;28;20284;-72
2023/03/04 01:50:17;;;;;;;1999.90;999.90;;;;;;;;;;4983107;28;20238;-70
2023/03/04 01:53:02;;;;;;;1999.90;999.90;;;;;;;;;;4980455;28;20206;-74
2023/03/04 01:55:47;;;;;;;1999.90;999.90;;;;;;;;;;4977392;28;20723;-72
2023/03/04 01:58:32;;;;;;;1999.90;999.90;;;;;;;;;;4974522;28;20281;-72
2023/03/04 02:01:18;;;;;;;1999.90;999.90;;;;;;;;;;4978690;28;20246;-71
2023/03/04 02:04:03;;;;;;;1999.90;999.90;;;;;;;;;;4985198;28;20101;-71
2023/03/04 02:06:48;;;;;;;1999.90;999.90;;;;;;;;;;4982810;28;20210;-73
2023/03/04 02:09:34;;;;;;;1999.90;999.90;;;;;;;;;;4980225;28;20320;-71
2023/03/04 02:12:19;;;;;;;1999.90;999.90;;;;;;;;;;4983857;28;20211;-72
2023/03/04 02:15:05;;;;;;;1999.90;999.90;;;;;;;;;;4992311;28;20355;-74
2023/03/04 02:17:51;;;;;;;1999.90;999.90;;;;;;;;;;4991967;28;20224;-73
2023/03/04 02:20:43;;;;;;;1999.90;999.90;;;;;;;;;;4980577;28;20234;-70
2023/03/04 02:23:32;;;;;;;1999.90;999.90;;;;;;;;;;4976749;28;20817;-73
2023/03/04 02:26:20;;;;;;;1999.90;999.90;;;;;;;;;;4985399;28;20217;-69
2023/03/04 02:29:05;;;;;;;1999.90;999.90;;;;;;;;;;4979850;28;20229;-72
2023/03/04 02:31:51;;;;;;;1999.90;999.90;;;;;;;;;;4976811;28;20344;-73
2023/03/04 02:34:37;;;;;;;1999.90;999.90;;;;;;;;;;4974400;28;20213;-72
2023/03/04 02:37:21;;;;;;;1999.90;999.90;;;;;;;;;;4982814;28;20730;-74
2023/03/04 02:40:09;;;;;;;1999.90;999.90;;;;;;;;;;4978013;28;20732;-73
2023/03/04 02:42:55;;;;;;;1999.90;999.90;;;;;;;;;;4979521;28;20568;-72
2023/03/04 02:45:42;;;;;;;1999.90;999.90;;;;;;;;;;4980341;28;20226;-73
2023/03/04 02:48:27;;;;;;;1999.90;999.90;;;;;;;;;;4973663;28;20214;-74
2023/03/04 02:51:12;;;;;;;1999.90;999.90;;;;;;;;;;4976761;28;20221;-74
2023/03/04 02:53:57;;;;;;;1999.90;999.90;;;;;;;;;;4983582;28;20724;-73
2023/03/04 02:56:44;;;;;;;1999.90;999.90;;;;;;;;;;4983029;28;20278;-73
2023/03/04 02:59:31;;;;;;;1999.90;999.90;;;;;;;;;;4985887;28;20239;-73
2023/03/04 03:02:16;;;;;;;1999.90;999.90;;;;;;;;;;4990674;28;20687;-73
2023/03/04 03:05:01;;;;;;;1999.90;999.90;;;;;;;;;;4989462;28;20216;-74
2023/03/04 03:07:45;;;;;;;1999.90;999.90;;;;;;;;;;4994629;28;20225;-75
2023/03/04 03:10:30;;;;;;;1999.90;999.90;;;;;;;;;;4988140;28;20292;-74
2023/03/04 03:13:15;;;;;;;1999.90;999.90;;;;;;;;;;4994818;28;20217;-74
2023/03/04 03:16:02;;;;;;;1999.90;999.90;;;;;;;;;;4995526;28;20587;-75
2023/03/04 03:18:46;;;;;;;1999.90;999.90;;;;;;;;;;4994278;28;20232;-75
2023/03/04 03:21:31;;;;;;;1999.90;999.90;;;;;;;;;;4988540;28;20335;-75
2023/03/04 03:24:16;;;;;;;1999.90;999.90;;;;;;;;;;4978300;28;20518;-74
2023/03/04 03:27:01;;;;;;;1999.90;999.90;;;;;;;;;;4994376;28;20249;-75
2023/03/04 03:29:46;;;;;;;1999.90;999.90;;;;;;;;;;4995260;28;20370;-74
2023/03/04 03:32:32;;;;;;;1999.90;999.90;;;;;;;;;;4994082;28;20217;-76
2023/03/04 03:35:18;;;;;;;1999.90;999.90;;;;;;;;;;4995134;28;20260;-75
2023/03/04 03:38:03;;;;;;;1999.90;999.90;;;;;;;;;;4994288;28;20865;-74
2023/03/04 03:40:48;;;;;;;1999.90;999.90;;;;;;;;;;4995136;28;20318;-74
2023/03/04 03:43:33;;;;;;;1999.90;999.90;;;;;;;;;;4994232;28;20221;-74
2023/03/04 03:46:18;;;;;;;1999.90;999.90;;;;;;;;;;4994837;28;20261;-74
2023/03/04 03:49:04;;;;;;;1999.90;999.90;;;;;;;;;;4991992;28;20096;-74
2023/03/04 03:51:49;;;;;;;1999.90;999.90;;;;;;;;;;4994340;28;20226;-74
2023/03/04 03:54:34;;;;;;;1999.90;999.90;;;;;;;;;;4980132;28;20295;-74
2023/03/04 03:57:19;;;;;;;1999.90;999.90;;;;;;;;;;4993567;28;20225;-74
2023/03/04 04:00:04;;;;;;;1999.90;999.90;;;;;;;;;;4993965;28;20234;-74
2023/03/04 04:02:49;;;;;;;1999.90;999.90;;;;;;;;;;4993923;28;20601;-74
2023/03/04 04:05:35;;;;;;;1999.90;999.90;;;;;;;;;;4987975;28;20803;-76
2023/03/04 04:08:20;;;;;;;1999.90;999.90;;;;;;;;;;4993440;28;20273;-74
2023/03/04 04:11:05;;;;;;;1999.90;999.90;;;;;;;;;;4993592;28;20742;-74
2023/03/04 04:13:50;;;;;;;1999.90;999.90;;;;;;;;;;4994640;28;20214;-74
2023/03/04 04:16:35;;;;;;;1999.90;999.90;;;;;;;;;;4993258;28;20594;-75
2023/03/04 04:19:20;;;;;;;1999.90;999.90;;;;;;;;;;4994245;28;20280;-74
2023/03/04 04:22:07;;;;;;;1999.90;999.90;;;;;;;;;;4992182;28;20209;-75
2023/03/04 04:24:51;;;;;;;1999.90;999.90;;;;;;;;;;4993556;28;20300;-74
2023/03/04 04:27:37;;;;;;;1999.90;999.90;;;;;;;;;;4982485;28;20876;-74
2023/03/04 04:30:22;;;;;;;1999.90;999.90;;;;;;;;;;4993978;28;20287;-74
2023/03/04 04:33:07;;;;;;;1999.90;999.90;;;;;;;;;;4991740;28;20217;-75
2023/03/04 04:35:52;;;;;;;1999.90;999.90;;;;;;;;;;4993496;28;20333;-75
2023/03/04 04:38:38;;;;;;;1999.90;999.90;;;;;;;;;;4987383;28;20256;-74
2023/03/04 04:41:24;;;;;;;1999.90;999.90;;;;;;;;;;4992907;28;20604;-74
2023/03/04 04:44:09;;;;;;;1999.90;999.90;;;;;;;;;;4993233;28;20222;-74
2023/03/04 04:46:54;;;;;;;1999.90;999.90;;;;;;;;;;4993100;28;20209;-75
2023/03/04 04:49:39;;;;;;;1999.90;999.90;;;;;;;;;;4994094;28;20478;-72
2023/03/04 04:52:24;;;;;;;1999.90;999.90;;;;;;;;;;4992577;28;20215;-74
2023/03/04 04:55:10;;;;;;;1999.90;999.90;;;;;;;;;;4992967;28;20250;-75
2023/03/04 04:57:56;;;;;;;1999.90;999.90;;;;;;;;;;4993414;28;20361;-74
2023/03/04 05:00:41;;;;;;;1999.90;999.90;;;;;;;;;;4992321;28;20239;-74
2023/03/04 05:06:47;;;;;;;1999.90;999.90;;;;;;;;;;4992330;28;20248;-74
2023/03/04 05:09:32;;;;;;;1999.90;999.90;;;;;;;;;;4993267;28;20229;-75
2023/03/04 05:12:19;;;;;;;1999.90;999.90;;;;;;;;;;4991064;28;20541;-75
2023/03/04 05:15:04;;;;;;;1999.90;999.90;;;;;;;;;;4992528;28;20214;-74
2023/03/04 05:17:49;;;;;;;1999.90;999.90;;;;;;;;;;4993083;28;20303;-75
2023/03/04 05:20:34;;;;;;;1999.90;999.90;;;;;;;;;;4986992;28;20236;-74
2023/03/04 05:23:19;;;;;;;1999.90;999.90;;;;;;;;;;4993274;28;20335;-74
2023/03/04 05:26:04;;;;;;;1999.90;999.90;;;;;;;;;;4992085;28;20702;-74
2023/03/04 05:28:51;;;;;;;1999.90;999.90;;;;;;;;;;4989306;28;20217;-74
2023/03/04 05:31:36;;;;;;;1999.90;999.90;;;;;;;;;;4992394;28;20223;-75
2023/03/04 05:34:21;;;;;;;1999.90;999.90;;;;;;;;;;4992068;28;20218;-74
2023/03/04 05:37:06;;;;;;;1999.90;999.90;;;;;;;;;;4975444;28;20445;-74
2023/03/04 05:39:51;;;;;;;1999.90;999.90;;;;;;;;;;4991958;28;20351;-74
2023/03/04 05:42:36;;;;;;;1999.90;999.90;;;;;;;;;;4992937;28;20261;-75
2023/03/04 05:45:22;;;;;;;1999.90;999.90;;;;;;;;;;4992058;28;20261;-73
2023/03/04 05:48:08;;;;;;;1999.90;999.90;;;;;;;;;;4992659;28;20206;-73
2023/03/04 05:50:53;;;;;;;1999.90;999.90;;;;;;;;;;4985106;28;20340;-75
2023/03/04 05:53:39;;;;;;;1999.90;999.90;;;;;;;;;;4986688;28;20712;-76
2023/03/04 05:56:24;;;;;;;1999.90;999.90;;;;;;;;;;4992263;28;20741;-75
2023/03/04 05:59:08;;;;;;;1999.90;999.90;;;;;;;;;;4991681;28;20302;-75
2023/03/04 06:01:55;;;;;;;1999.90;999.90;;;;;;;;;;4990968;28;20215;-75
2023/03/04 06:04:41;;;;;;;1999.90;999.90;;;;;;;;;;4983711;28;20699;-74
2023/03/04 06:07:26;;;;;;;1999.90;999.90;;;;;;;;;;4979698;28;20589;-74
2023/03/04 06:10:12;;;;;;;1999.90;999.90;;;;;;;;;;4977883;28;20250;-74
2023/03/04 06:12:57;;;;;;;1999.90;999.90;;;;;;;;;;4978194;28;20208;-71
2023/03/04 06:15:41;;;;;;;1999.90;999.90;;;;;;;;;;4977717;28;20589;-74
2023/03/04 06:18:29;;;;;;;1999.90;999.90;;;;;;;;;;4982547;28;20222;-72
2023/03/04 06:21:14;;;;;;;1999.90;999.90;;;;;;;;;;4980718;28;20238;-72
2023/03/04 06:23:59;;;;;;;1999.90;999.90;;;;;;;;;;4981504;28;20297;-76
2023/03/04 06:26:44;;;;;;;1999.90;999.90;;;;;;;;;;4977858;28;20225;-75
2023/03/04 06:29:29;;;;;;;1999.90;999.90;;;;;;;;;;4981280;28;20233;-77
2023/03/04 06:32:14;;;;;;;1999.90;999.90;;;;;;;;;;4981989;28;20217;-76
2023/03/04 06:35:00;;;;;;;1999.90;999.90;;;;;;;;;;4978603;28;20206;-73
2023/03/04 06:37:45;;;;;;;1999.90;999.90;;;;;;;;;;4984491;28;20333;-74
2023/03/04 06:40:30;;;;;;;1999.90;999.90;;;;;;;;;;4987680;28;20260;-72
2023/03/04 06:43:15;;;;;;;1999.90;999.90;;;;;;;;;;4984158;28;20218;-73
2023/03/04 06:45:59;;;;;;;1999.90;999.90;;;;;;;;;;4987331;28;20749;-73
2023/03/04 06:48:45;;;;;;;1999.90;999.90;;;;;;;;;;4984028;28;20592;-72
2023/03/04 06:51:31;;;;;;;1999.90;999.90;;;;;;;;;;4994010;28;20218;-72
2023/03/04 06:54:16;;;;;;;1999.90;999.90;;;;;;;;;;4981933;28;20215;-74
2023/03/04 06:57:01;;;;;;;1999.90;999.90;;;;;;;;;;4981284;28;20226;-75
2023/03/04 06:59:46;;;;;;;1999.90;999.90;;;;;;;;;;4983869;28;20285;-72
2023/03/04 07:02:31;;;;;;;1999.90;999.90;;;;;;;;;;4986804;28;20209;-75
2023/03/04 07:05:16;;;;;;;1999.90;999.90;;;;;;;;;;4985904;28;20215;-72
2023/03/04 07:08:03;;;;;;;1999.90;999.90;;;;;;;;;;4985917;28;20634;-75
2023/03/04 07:10:49;;;;;;;1999.90;999.90;;;;;;;;;;4977425;28;20610;-73
2023/03/04 07:13:37;;;;;;;1999.90;999.90;;;;;;;;;;4981629;28;20288;-71
2023/03/04 07:16:23;;;;;;;1999.90;999.90;;;;;;;;;;4981397;28;20215;-75
2023/03/04 07:19:08;;;;;;;1999.90;999.90;;;;;;;;;;4982002;28;20321;-75
2023/03/04 07:21:52;;;;;;;1999.90;999.90;;;;;;;;;;4982157;28;20562;-73
2023/03/04 07:24:39;;;;;;;1999.90;999.90;;;;;;;;;;4979996;28;20336;-75
2023/03/04 07:27:24;;;;;;;1999.90;999.90;;;;;;;;;;4979858;28;21858;-75
2023/03/04 07:30:10;;;;;;;1999.90;999.90;;;;;;;;;;4985001;28;20227;-75
2023/03/04 07:32:57;;;;;;;1999.90;999.90;;;;;;;;;;4987348;28;20214;-75
2023/03/04 07:35:42;;;;;;;1999.90;999.90;;;;;;;;;;4986842;28;20238;-71
2023/03/04 07:38:26;;;;;;;1999.90;999.90;;;;;;;;;;4982373;28;20619;-74
2023/03/04 07:41:13;;;;;;;1999.90;999.90;;;;;;;;;;4981075;28;20222;-74
2023/03/04 07:43:58;;;;;;;1999.90;999.90;;;;;;;;;;4981263;28;20211;-74
2023/03/04 07:46:43;;;;;;;1999.90;999.90;;;;;;;;;;4980280;28;20695;-74
2023/03/04 07:49:28;;;;;;;1999.90;999.90;;;;;;;;;;4982059;28;20241;-75
2023/03/04 07:52:13;;;;;;;1999.90;999.90;;;;;;;;;;4984758;28;20281;-74
2023/03/04 07:54:58;;;;;;;1999.90;999.90;;;;;;;;;;4991388;28;20218;-76
2023/03/04 07:57:45;;;;;;;1999.90;999.90;;;;;;;;;;4985466;28;20211;-75
2023/03/04 08:00:31;;;;;;;1999.90;999.90;;;;;;;;;;4987723;28;20432;-71
2023/03/04 08:03:16;;;;;;;1999.90;999.90;;;;;;;;;;4987401;28;20755;-75
2023/03/04 08:06:01;;;;;;;1999.90;999.90;;;;;;;;;;4980342;28;20218;-75
2023/03/04 08:08:46;;;;;;;1999.90;999.90;;;;;;;;;;4985109;28;20212;-74
2023/03/04 08:11:32;;;;;;;1999.90;999.90;;;;;;;;;;4985655;28;20720;-74
2023/03/04 08:14:18;;;;;;;1999.90;999.90;;;;;;;;;;4985986;28;20691;-75
2023/03/04 08:17:03;;;;;;;1999.90;999.90;;;;;;;;;;4982938;28;20302;-74
2023/03/04 08:19:48;;;;;;;1999.90;999.90;;;;;;;;;;4980513;28;20294;-74
2023/03/04 08:22:33;;;;;;;1999.90;999.90;;;;;;;;;;4985540;28;20274;-74
2023/03/04 08:25:18;;;;;;;1999.90;999.90;;;;;;;;;;4983524;28;20755;-75
2023/03/04 08:28:03;;;;;;;1999.90;999.90;;;;;;;;;;4985262;28;20577;-76
2023/03/04 08:30:53;;;;;;;1999.90;999.90;;;;;;;;;;4981469;28;20224;-74
2023/03/04 08:33:38;;;;;;;1999.90;999.90;;;;;;;;;;4979141;28;20208;-74
2023/03/04 08:36:23;;;;;;;1999.90;999.90;;;;;;;;;;4982566;28;20410;-74
2023/03/04 08:39:08;;;;;;;1999.90;999.90;;;;;;;;;;4987758;28;20798;-72
2023/03/04 08:41:53;;;;;;;1999.90;999.90;;;;;;;;;;4978599;28;20227;-75
2023/03/04 08:44:38;;;;;;;1999.90;999.90;;;;;;;;;;4979412;28;20219;-76
2023/03/04 08:47:25;;;;;;;1999.90;999.90;;;;;;;;;;4978841;28;20266;-76
2023/03/04 08:50:11;;;;;;;1999.90;999.90;;;;;;;;;;4989939;28;20235;-75
2023/03/04 08:52:56;;;;;;;1999.90;999.90;;;;;;;;;;4992353;28;20219;-75
2023/03/04 08:55:41;;;;;;;1999.90;999.90;;;;;;;;;;4982438;28;20207;-75
2023/03/04 08:58:26;;;;;;;1999.90;999.90;;;;;;;;;;4984966;28;20214;-75
2023/03/04 09:01:12;;;;;;;1999.90;999.90;;;;;;;;;;4993565;28;20219;-75
2023/03/04 09:03:58;;;;;;;1999.90;999.90;;;;;;;;;;4990741;28;20449;-76
2023/03/04 09:06:43;;;;;;;1999.90;999.90;;;;;;;;;;4986821;28;20214;-76
2023/03/04 09:09:28;;;;;;;1999.90;999.90;;;;;;;;;;4985942;28;20242;-76
2023/03/04 09:12:13;;;;;;;1999.90;999.90;;;;;;;;;;4987045;28;20211;-75
2023/03/04 09:14:58;;;;;;;1999.90;999.90;;;;;;;;;;4985990;28;20211;-76
2023/03/04 09:17:43;;;;;;;1999.90;999.90;;;;;;;;;;4978844;28;20712;-74
2023/03/04 09:20:30;;;;;;;1999.90;999.90;;;;;;;;;;4979629;28;20325;-75
2023/03/04 09:23:15;;;;;;;1999.90;999.90;;;;;;;;;;4980968;28;20219;-75
2023/03/04 09:26:00;;;;;;;1999.90;999.90;;;;;;;;;;4984489;28;20218;-75
2023/03/04 09:28:45;;;;;;;1999.90;999.90;;;;;;;;;;4985479;28;20662;-73
2023/03/04 09:31:30;;;;;;;1999.90;999.90;;;;;;;;;;4987610;28;20703;-74
2023/03/04 09:34:16;;;;;;;1999.90;999.90;;;;;;;;;;4980552;28;20204;-73
2023/03/04 09:37:02;;;;;;;1999.90;999.90;;;;;;;;;;4978525;28;20219;-74
2023/03/04 09:39:48;;;;;;;1999.90;999.90;;;;;;;;;;4981589;28;20258;-74
2023/03/04 09:42:35;;;;;;;1999.90;999.90;;;;;;;;;;4982316;28;20217;-75
2023/03/04 09:45:21;;;;;;;1999.90;999.90;;;;;;;;;;4991984;28;20214;-74
2023/03/04 09:48:07;;;;;;;1999.90;999.90;;;;;;;;;;4986436;28;20286;-75
2023/03/04 09:51:01;;;;;;;1999.90;999.90;;;;;;;;;;4990473;28;20226;-75
2023/03/04 09:53:54;;;;;;;1999.90;999.90;;;;;;;;;;4985447;28;20213;-76
2023/03/04 09:56:39;;;;;;;1999.90;999.90;;;;;;;;;;4988480;28;20210;-74
2023/03/04 09:59:25;;;;;;;1999.90;999.90;;;;;;;;;;4988968;28;20749;-75
2023/03/04 10:02:16;;;;;;;1999.90;999.90;;;;;;;;;;4984727;28;20338;-73
2023/03/04 10:05:04;;;;;;;1999.90;999.90;;;;;;;;;;4986845;28;20203;-75
2023/03/04 10:07:52;;;;;;;1999.90;999.90;;;;;;;;;;4984687;28;20263;-75
2023/03/04 10:10:42;;;;;;;1999.90;999.90;;;;;;;;;;4978550;28;20230;-75
2023/03/04 10:13:31;;;;;;;1999.90;999.90;;;;;;;;;;4978239;28;20334;-74
2023/03/04 10:16:19;;;;;;;1999.90;999.90;;;;;;;;;;4983468;28;20211;-74
2023/03/04 10:19:16;;;;;;;1999.90;999.90;;;;;;;;;;4976798;28;20239;-73
2023/03/04 10:22:01;;;;;;;1999.90;999.90;;;;;;;;;;4989293;28;20211;-73
2023/03/04 10:24:47;;;;;;;1999.90;999.90;;;;;;;;;;4992476;28;20215;-73
2023/03/04 10:27:33;;;;;;;1999.90;999.90;;;;;;;;;;4992547;28;20211;-74
2023/03/04 10:30:21;;;;;;;1999.90;999.90;;;;;;;;;;4992386;28;20723;-74
2023/03/04 10:33:10;;;;;;;1999.90;999.90;;;;;;;;;;4992438;28;20214;-74
2023/03/04 10:35:59;;;;;;;1999.90;999.90;;;;;;;;;;4992081;28;20207;-74
2023/03/04 10:38:44;;;;;;;1999.90;999.90;;;;;;;;;;4992229;28;20207;-74
2023/03/04 10:41:30;;;;;;;1999.90;999.90;;;;;;;;;;4978777;28;21017;-74
2023/03/04 10:44:17;;;;;;;1999.90;999.90;;;;;;;;;;4973024;28;20208;-74
2023/03/04 10:47:02;;;;;;;1999.90;999.90;;;;;;;;;;4972688;28;20211;-74
2023/03/04 10:49:51;;;;;;;1999.90;999.90;;;;;;;;;;4972789;28;20223;-74
2023/03/04 10:52:39;;;;;;;1999.90;999.90;;;;;;;;;;4972909;28;20263;-74
2023/03/04 10:55:25;;;;;;;1999.90;999.90;;;;;;;;;;4972756;28;20356;-75
2023/03/04 10:58:13;;;;;;;1999.90;999.90;;;;;;;;;;4972668;28;20324;-74
2023/03/04 11:01:01;;;;;;;1999.90;999.90;;;;;;;;;;4972626;28;20606;-76
2023/03/04 11:03:48;;;;;;;1999.90;999.90;;;;;;;;;;4986893;28;20285;-74
2023/03/04 11:06:33;;;;;;;1999.90;999.90;;;;;;;;;;4974611;28;20727;-75
2023/03/04 11:09:21;;;;;;;1999.90;999.90;;;;;;;;;;4977642;28;20230;-75
2023/03/04 11:12:10;;;;;;;1999.90;999.90;;;;;;;;;;4981611;28;20767;-73
2023/03/04 11:14:55;;;;;;;1999.90;999.90;;;;;;;;;;4988895;28;20699;-75
2023/03/04 11:17:43;;;;;;;1999.90;999.90;;;;;;;;;;4985784;28;20572;-75
2023/03/04 11:20:30;;;;;;;1999.90;999.90;;;;;;;;;;4990198;28;20995;-74
2023/03/04 11:23:17;;;;;;;1999.90;999.90;;;;;;;;;;4989032;28;20208;-74
2023/03/04 11:26:03;;;;;;;1999.90;999.90;;;;;;;;;;4983918;28;20228;-75
2023/03/04 11:28:52;;;;;;;1999.90;999.90;;;;;;;;;;4988805;28;20255;-73
2023/03/04 11:31:40;;;;;;;1999.90;999.90;;;;;;;;;;4992386;28;20215;-74
2023/03/04 11:34:31;;;;;;;1999.90;999.90;;;;;;;;;;4995147;28;20755;-76
2023/03/04 11:37:18;;;;;;;1999.90;999.90;;;;;;;;;;4989215;28;20273;-74
2023/03/04 11:40:04;;;;;;;1999.90;999.90;;;;;;;;;;4977935;28;20223;-75
2023/03/04 11:42:52;;;;;;;1999.90;999.90;;;;;;;;;;4995020;28;20214;-76
2023/03/04 11:45:44;;;;;;;1999.90;999.90;;;;;;;;;;4995133;28;20291;-74
2023/03/04 11:48:34;;;;;;;1999.90;999.90;;;;;;;;;;4980479;28;20588;-74
2023/03/04 11:51:23;;;;;;;1999.90;999.90;;;;;;;;;;4984383;28;20434;-75
2023/03/04 11:54:16;;;;;;;1999.90;999.90;;;;;;;;;;4989962;28;20219;-75
2023/03/04 11:57:05;;;;;;;1999.90;999.90;;;;;;;;;;4994718;28;20211;-75
2023/03/04 11:59:56;;;;;;;1999.90;999.90;;;;;;;;;;4989002;28;20215;-74
2023/03/04 12:02:46;;;;;;;1999.90;999.90;;;;;;;;;;4981240;28;20816;-74
2023/03/04 12:05:42;;;;;;;1999.90;999.90;;;;;;;;;;4986259;28;20707;-74
2023/03/04 12:08:39;;;;;;;1999.90;999.90;;;;;;;;;;4989801;28;20764;-74
2023/03/04 12:11:28;;;;;;;1999.90;999.90;;;;;;;;;;4993799;28;20593;-75
2023/03/04 12:14:18;;;;;;;1999.90;999.90;;;;;;;;;;4994111;28;20216;-75
2023/03/04 12:17:22;;;;;;;1999.90;999.90;;;;;;;;;;4989908;28;20211;-73
2023/03/04 12:20:16;;;;;;;1999.90;999.90;;;;;;;;;;4990148;28;20297;-74
2023/03/04 12:23:07;;;;;;;1999.90;999.90;;;;;;;;;;4993110;28;20216;-75
2023/03/04 12:25:56;;;;;;;1999.90;999.90;;;;;;;;;;4993736;28;20210;-75
2023/03/04 12:28:51;;;;;;;1999.90;999.90;;;;;;;;;;4993991;28;20593;-74
2023/03/04 12:31:40;;;;;;;1999.90;999.90;;;;;;;;;;4994344;28;20204;-75
2023/03/04 12:34:40;;;;;;;1999.90;999.90;;;;;;;;;;4994378;28;20199;-75
2023/03/04 12:37:43;;;;;;;1999.90;999.90;;;;;;;;;;4993938;28;20575;-75
2023/03/04 12:40:32;;;;;;;1999.90;999.90;;;;;;;;;;4993734;28;20723;-75
2023/03/04 12:43:40;;;;;;;1999.90;999.90;;;;;;;;;;4994225;28;20243;-75
2023/03/04 12:46:27;;;;;;;1999.90;999.90;;;;;;;;;;4994041;28;20331;-75
2023/03/04 12:49:41;;;;;;;1999.90;999.90;;;;;;;;;;4993904;28;20247;-75
2023/03/04 12:52:32;;;;;;;1999.90;999.90;;;;;;;;;;4993748;28;20239;-75
2023/03/04 12:55:18;;;;;;;1999.90;999.90;;;;;;;;;;4993434;28;20227;-75
2023/03/04 12:58:04;;;;;;;1999.90;999.90;;;;;;;;;;4993671;28;20210;-75
2023/03/04 13:00:55;;;;;;;1999.90;999.90;;;;;;;;;;4993489;28;20219;-75
2023/03/04 13:03:43;;;;;;;1999.90;999.90;;;;;;;;;;4993325;28;20348;-75
2023/03/04 13:06:35;;;;;;;1999.90;999.90;;;;;;;;;;4993534;28;20214;-75
2023/03/04 13:09:25;;;;;;;1999.90;999.90;;;;;;;;;;4993211;28;20227;-75
2023/03/04 13:12:14;;;;;;;1999.90;999.90;;;;;;;;;;4993846;28;20211;-74
2023/03/04 13:15:18;;;;;;;1999.90;999.90;;;;;;;;;;4993220;28;20207;-75
2023/03/04 13:18:26;;;;;;;1999.90;999.90;;;;;;;;;;4993189;28;20331;-75
2023/03/04 13:21:22;;;;;;;1999.90;999.90;;;;;;;;;;4993255;28;20755;-75
2023/03/04 13:24:22;;;;;;;1999.90;999.90;;;;;;;;;;4993384;28;20703;-74
2023/03/04 13:27:22;;;;;;;1999.90;999.90;;;;;;;;;;4992930;28;20203;-75
2023/03/04 13:30:36;;;;;;;1999.90;999.90;;;;;;;;;;4993080;28;20306;-75
2023/03/04 13:33:46;;;;;;;1999.90;999.90;;;;;;;;;;4992002;28;20406;-75
2023/03/04 13:37:03;;;;;;;1999.90;999.90;;;;;;;;;;4993114;28;20203;-75
2023/03/04 13:40:08;;;;;;;1999.90;999.90;;;;;;;;;;4992655;28;20234;-75
2023/03/04 13:42:54;;;;;;;1999.90;999.90;;;;;;;;;;4993074;28;20206;-75
2023/03/04 13:45:39;;;;;;;1999.90;999.90;;;;;;;;;;4992857;28;20606;-75
2023/03/04 13:48:31;;;;;;;1999.90;999.90;;;;;;;;;;4992192;28;20214;-74
2023/03/04 13:51:17;;;;;;;1999.90;999.90;;;;;;;;;;4992651;28;20262;-75
2023/03/04 13:54:12;;;;;;;1999.90;999.90;;;;;;;;;;4993045;28;20204;-75
2023/03/04 13:57:18;;;;;;;1999.90;999.90;;;;;;;;;;4992717;28;20275;-75
2023/03/04 14:00:07;;;;;;;1999.90;999.90;;;;;;;;;;4991272;28;20429;-75
2023/03/04 14:02:52;;;;;;;1999.90;999.90;;;;;;;;;;4992529;28;20203;-75
2023/03/04 14:05:36;;;;;;;1999.90;999.90;;;;;;;;;;4992668;28;20211;-75
2023/03/04 14:08:25;;;;;;;1999.90;999.90;;;;;;;;;;4992487;28;20298;-75
2023/03/04 14:11:12;;;;;;;1999.90;999.90;;;;;;;;;;4992651;28;20211;-75
2023/03/04 14:13:59;;;;;;;1999.90;999.90;;;;;;;;;;4992378;28;20286;-75
2023/03/04 14:16:49;;;;;;;1999.90;999.90;;;;;;;;;;4992368;28;20206;-75
2023/03/04 14:19:38;;;;;;;1999.90;999.90;;;;;;;;;;4992878;28;20593;-76
2023/03/04 14:22:24;;;;;;;1999.90;999.90;;;;;;;;;;4992598;28;20858;-75
2023/03/04 14:25:21;;;;;;;1999.90;999.90;;;;;;;;;;4992439;28;20700;-75
2023/03/04 14:28:09;;;;;;;1999.90;999.90;;;;;;;;;;4992290;28;20203;-74
2023/03/04 14:30:56;;;;;;;1999.90;999.90;;;;;;;;;;4992329;28;20309;-75
2023/03/04 14:33:45;;;;;;;1999.90;999.90;;;;;;;;;;4992426;28;20291;-75
2023/03/04 14:36:32;;;;;;;1999.90;999.90;;;;;;;;;;4992498;28;20243;-75
2023/03/04 14:39:18;;;;;;;1999.90;999.90;;;;;;;;;;4992335;28;20366;-75
2023/03/04 14:42:06;;;;;;;1999.90;999.90;;;;;;;;;;4992085;28;20230;-74
2023/03/04 14:44:51;;;;;;;1999.90;999.90;;;;;;;;;;4992670;28;20231;-75
2023/03/04 14:47:38;;;;;;;1999.90;999.90;;;;;;;;;;4992257;28;20568;-75
2023/03/04 14:50:25;;;;;;;1999.90;999.90;;;;;;;;;;4992265;28;20223;-75
2023/03/04 14:53:14;;;;;;;1999.90;999.90;;;;;;;;;;4992257;28;20207;-75
2023/03/04 14:56:00;;;;;;;1999.90;999.90;;;;;;;;;;4992085;28;20207;-75
2023/03/04 14:58:52;;;;;;;1999.90;999.90;;;;;;;;;;4991982;28;20215;-75
2023/03/04 15:01:37;;;;;;;1999.90;999.90;;;;;;;;;;4995794;28;20787;-75
2023/03/04 15:04:22;;;;;;;1999.90;999.90;;;;;;;;;;4995929;28;20218;-74
2023/03/04 15:07:14;;;;;;;1999.90;999.90;;;;;;;;;;4995767;28;20231;-75
2023/03/04 15:10:02;;;;;;;1999.90;999.90;;;;;;;;;;4995606;28;20238;-75
2023/03/04 15:12:50;;;;;;;1999.90;999.90;;;;;;;;;;4995768;28;20282;-75
2023/03/04 15:15:38;;;;;;;1999.90;999.90;;;;;;;;;;4994344;28;20445;-76
2023/03/04 15:18:25;;;;;;;1999.90;999.90;;;;;;;;;;4995546;28;20207;-75
2023/03/04 15:21:27;;;;;;;1999.90;999.90;;;;;;;;;;4995420;28;20788;-75
2023/03/04 15:24:14;;;;;;;1999.90;999.90;;;;;;;;;;4995608;28;20218;-75
2023/03/04 15:26:59;;;;;;;1999.90;999.90;;;;;;;;;;4995345;28;20208;-75
2023/03/04 15:29:44;;;;;;;1999.90;999.90;;;;;;;;;;4995586;28;20227;-75
2023/03/04 15:32:29;;;;;;;1999.90;999.90;;;;;;;;;;4995247;28;20199;-75
2023/03/04 15:35:15;;;;;;;1999.90;999.90;;;;;;;;;;4995324;28;20210;-75
2023/03/04 15:38:01;;;;;;;1999.90;999.90;;;;;;;;;;4995234;28;20207;-75
2023/03/04 15:40:48;;;;;;;1999.90;999.90;;;;;;;;;;4994448;28;20811;-75
2023/03/04 15:43:32;;;;;;;1999.90;999.90;;;;;;;;;;4995160;28;20211;-75
2023/03/04 15:46:17;;;;;;;1999.90;999.90;;;;;;;;;;4995285;28;20200;-75
2023/03/04 15:49:03;;;;;;;1999.90;999.90;;;;;;;;;;4994942;28;20254;-75
2023/03/04 15:51:49;;;;;;;1999.90;999.90;;;;;;;;;;4995129;28;20199;-75
2023/03/04 15:54:34;;;;;;;1999.90;999.90;;;;;;;;;;4994740;28;20730;-76
2023/03/04 15:57:21;;;;;;;1999.90;999.90;;;;;;;;;;4994903;28;20702;-75
2023/03/04 16:00:07;;;;;;;1999.90;999.90;;;;;;;;;;4995084;28;20783;-75
2023/03/04 16:02:52;;;;;;;1999.90;999.90;;;;;;;;;;4994909;28;20211;-75
2023/03/04 16:05:38;;;;;;;1999.90;999.90;;;;;;;;;;4994688;28;20282;-75
2023/03/04 16:08:24;;;;;;;1999.90;999.90;;;;;;;;;;4994691;28;20199;-75
2023/03/04 16:11:13;;;;;;;1999.90;999.90;;;;;;;;;;4994267;28;20234;-75
2023/03/04 16:14:00;;;;;;;1999.90;999.90;;;;;;;;;;4994787;28;20258;-75
2023/03/04 16:16:45;;;;;;;1999.90;999.90;;;;;;;;;;4994552;28;20723;-75
2023/03/04 16:19:30;;;;;;;1999.90;999.90;;;;;;;;;;4994469;28;20278;-75
2023/03/04 16:22:16;;;;;;;1999.90;999.90;;;;;;;;;;4994447;28;20254;-75
2023/03/04 16:25:02;;;;;;;1999.90;999.90;;;;;;;;;;4994371;28;20245;-75
2023/03/04 16:27:47;;;;;;;1999.90;999.90;;;;;;;;;;4994380;28;20214;-74
2023/03/04 16:30:33;;;;;;;1999.90;999.90;;;;;;;;;;4994312;28;20227;-75
2023/03/04 16:33:18;;;;;;;1999.90;999.90;;;;;;;;;;4996548;28;20215;-75
2023/03/04 16:36:04;;;;;;;1999.90;999.90;;;;;;;;;;4998578;28;20208;-74
2023/03/04 16:38:49;;;;;;;1999.90;999.90;;;;;;;;;;4998295;28;20262;-75
2023/03/04 16:41:35;;;;;;;1999.90;999.90;;;;;;;;;;4998622;28;20218;-75
2023/03/04 16:44:20;;;;;;;1999.90;999.90;;;;;;;;;;4994117;28;20282;-75
2023/03/04 16:47:07;;;;;;;1999.90;999.90;;;;;;;;;;4993853;28;20222;-75